sensor_id;sensor_type;location;lat;lon;timestamp;P1;durP1;ratioP1;P2;durP2;ratioP2
59922;SDS011;45778;51.142;3.732;2023-03-13T00:03:44;0.00;;;0.00;;
59922;SDS011;45778;51.142;3.732;2023-03-13T00:06:11;0.60;;;0.60;;
59922;SDS011;45778;51.142;3.732;2023-03-13T00:08:37;0.22;;;0.22;;
59922;SDS011;45778;51.142;3.732;2023-03-13T00:11:06;1.45;;;1.35;;
59922;SDS011;45778;51.142;3.732;2023-03-13T00:13:33;0.00;;;0.00;;
59922;SDS011;45778;51.142;3.732;2023-03-13T00:16:03;0.00;;;0.00;;
59922;SDS011;45778;51.142;3.732;2023-03-13T00:18:31;0.63;;;0.63;;
59922;SDS011;45778;51.142;3.732;2023-03-13T00:20:59;6.88;;;2.60;;
59922;SDS011;45778;51.142;3.732;2023-03-13T00:23:30;2.60;;;2.00;;
59922;SDS011;45778;51.142;3.732;2023-03-13T00:25:58;0.20;;;0.20;;
59922;SDS011;45778;51.142;3.732;2023-03-13T00:28:29;0.85;;;0.82;;
59922;SDS011;45778;51.142;3.732;2023-03-13T00:30:59;0.45;;;0.45;;
59922;SDS011;45778;51.142;3.732;2023-03-13T00:35:59;0.38;;;0.38;;
59922;SDS011;45778;51.142;3.732;2023-03-13T00:38:26;0.00;;;0.00;;
59922;SDS011;45778;51.142;3.732;2023-03-13T00:41:00;0.20;;;0.20;;
59922;SDS011;45778;51.142;3.732;2023-03-13T00:43:27;0.10;;;0.10;;
59922;SDS011;45778;51.142;3.732;2023-03-13T00:45:53;0.10;;;0.10;;
59922;SDS011;45778;51.142;3.732;2023-03-13T00:48:19;0.32;;;0.32;;
59922;SDS011;45778;51.142;3.732;2023-03-13T00:50:45;1.00;;;1.00;;
59922;SDS011;45778;51.142;3.732;2023-03-13T00:53:11;0.00;;;0.00;;
59922;SDS011;45778;51.142;3.732;2023-03-13T00:55:36;0.08;;;0.08;;
59922;SDS011;45778;51.142;3.732;2023-03-13T00:58:02;0.22;;;0.22;;
59922;SDS011;45778;51.142;3.732;2023-03-13T01:00:28;0.00;;;0.00;;
59922;SDS011;45778;51.142;3.732;2023-03-13T01:02:53;0.10;;;0.10;;
59922;SDS011;45778;51.142;3.732;2023-03-13T01:05:19;0.00;;;0.00;;
59922;SDS011;45778;51.142;3.732;2023-03-13T01:07:45;1.08;;;0.57;;
59922;SDS011;45778;51.142;3.732;2023-03-13T01:10:10;0.20;;;0.20;;
59922;SDS011;45778;51.142;3.732;2023-03-13T01:12:36;0.00;;;0.00;;
59922;SDS011;45778;51.142;3.732;2023-03-13T01:15:02;0.10;;;0.10;;
59922;SDS011;45778;51.142;3.732;2023-03-13T01:17:28;0.20;;;0.20;;
59922;SDS011;45778;51.142;3.732;2023-03-13T01:19:55;0.35;;;0.35;;
59922;SDS011;45778;51.142;3.732;2023-03-13T01:22:21;0.38;;;0.38;;
59922;SDS011;45778;51.142;3.732;2023-03-13T01:24:47;0.15;;;0.15;;
59922;SDS011;45778;51.142;3.732;2023-03-13T01:27:16;0.55;;;0.50;;
59922;SDS011;45778;51.142;3.732;2023-03-13T01:29:43;0.00;;;0.00;;
59922;SDS011;45778;51.142;3.732;2023-03-13T01:32:09;0.13;;;0.13;;
59922;SDS011;45778;51.142;3.732;2023-03-13T01:34:34;0.13;;;0.13;;
59922;SDS011;45778;51.142;3.732;2023-03-13T01:37:00;0.17;;;0.17;;
59922;SDS011;45778;51.142;3.732;2023-03-13T01:39:26;0.05;;;0.05;;
59922;SDS011;45778;51.142;3.732;2023-03-13T01:41:52;0.00;;;0.00;;
59922;SDS011;45778;51.142;3.732;2023-03-13T01:44:25;0.10;;;0.10;;
59922;SDS011;45778;51.142;3.732;2023-03-13T01:46:51;0.00;;;0.00;;
59922;SDS011;45778;51.142;3.732;2023-03-13T01:49:22;1.48;;;1.00;;
59922;SDS011;45778;51.142;3.732;2023-03-13T01:52:00;1.55;;;0.90;;
59922;SDS011;45778;51.142;3.732;2023-03-13T01:54:31;0.00;;;0.00;;
59922;SDS011;45778;51.142;3.732;2023-03-13T01:57:07;0.05;;;0.05;;
59922;SDS011;45778;51.142;3.732;2023-03-13T01:59:39;0.00;;;0.00;;
59922;SDS011;45778;51.142;3.732;2023-03-13T02:02:09;0.00;;;0.00;;
59922;SDS011;45778;51.142;3.732;2023-03-13T02:04:37;0.00;;;0.00;;
59922;SDS011;45778;51.142;3.732;2023-03-13T02:07:09;0.03;;;0.03;;
59922;SDS011;45778;51.142;3.732;2023-03-13T02:09:38;0.00;;;0.00;;
59922;SDS011;45778;51.142;3.732;2023-03-13T02:12:09;0.00;;;0.00;;
59922;SDS011;45778;51.142;3.732;2023-03-13T02:14:42;0.00;;;0.00;;
59922;SDS011;45778;51.142;3.732;2023-03-13T02:17:11;0.00;;;0.00;;
59922;SDS011;45778;51.142;3.732;2023-03-13T02:19:42;0.05;;;0.05;;
59922;SDS011;45778;51.142;3.732;2023-03-13T02:22:19;0.00;;;0.00;;
59922;SDS011;45778;51.142;3.732;2023-03-13T02:27:39;0.00;;;0.00;;
59922;SDS011;45778;51.142;3.732;2023-03-13T02:30:07;0.43;;;0.43;;
59922;SDS011;45778;51.142;3.732;2023-03-13T02:32:34;0.20;;;0.20;;
59922;SDS011;45778;51.142;3.732;2023-03-13T02:35:05;0.00;;;0.00;;
59922;SDS011;45778;51.142;3.732;2023-03-13T02:37:33;0.30;;;0.30;;
59922;SDS011;45778;51.142;3.732;2023-03-13T02:40:02;0.15;;;0.15;;
59922;SDS011;45778;51.142;3.732;2023-03-13T02:45:00;5.93;;;3.08;;
59922;SDS011;45778;51.142;3.732;2023-03-13T02:47:26;6.97;;;3.40;;
59922;SDS011;45778;51.142;3.732;2023-03-13T02:49:51;7.85;;;4.05;;
59922;SDS011;45778;51.142;3.732;2023-03-13T02:52:22;6.97;;;2.90;;
59922;SDS011;45778;51.142;3.732;2023-03-13T02:54:55;5.32;;;3.55;;
59922;SDS011;45778;51.142;3.732;2023-03-13T02:57:26;7.45;;;3.75;;
59922;SDS011;45778;51.142;3.732;2023-03-13T02:59:53;7.43;;;4.05;;
59922;SDS011;45778;51.142;3.732;2023-03-13T03:02:19;7.40;;;4.40;;
59922;SDS011;45778;51.142;3.732;2023-03-13T03:04:44;7.78;;;3.70;;
59922;SDS011;45778;51.142;3.732;2023-03-13T03:07:10;6.82;;;3.75;;
59922;SDS011;45778;51.142;3.732;2023-03-13T03:09:36;6.15;;;3.05;;
59922;SDS011;45778;51.142;3.732;2023-03-13T03:12:02;6.90;;;2.60;;
59922;SDS011;45778;51.142;3.732;2023-03-13T03:14:28;4.38;;;2.47;;
59922;SDS011;45778;51.142;3.732;2023-03-13T03:16:53;7.30;;;4.03;;
59922;SDS011;45778;51.142;3.732;2023-03-13T03:19:19;5.05;;;3.00;;
59922;SDS011;45778;51.142;3.732;2023-03-13T03:21:45;4.25;;;2.42;;
59922;SDS011;45778;51.142;3.732;2023-03-13T03:24:13;3.63;;;2.05;;
59922;SDS011;45778;51.142;3.732;2023-03-13T03:26:39;6.65;;;3.13;;
59922;SDS011;45778;51.142;3.732;2023-03-13T03:29:05;2.50;;;1.80;;
59922;SDS011;45778;51.142;3.732;2023-03-13T03:31:32;4.13;;;2.45;;
59922;SDS011;45778;51.142;3.732;2023-03-13T03:33:58;3.90;;;2.47;;
59922;SDS011;45778;51.142;3.732;2023-03-13T03:36:24;8.55;;;3.75;;
59922;SDS011;45778;51.142;3.732;2023-03-13T03:38:50;3.65;;;2.15;;
59922;SDS011;45778;51.142;3.732;2023-03-13T03:41:16;4.22;;;2.33;;
59922;SDS011;45778;51.142;3.732;2023-03-13T03:43:43;7.25;;;3.25;;
59922;SDS011;45778;51.142;3.732;2023-03-13T03:46:09;9.38;;;3.65;;
59922;SDS011;45778;51.142;3.732;2023-03-13T03:48:35;5.35;;;2.88;;
59922;SDS011;45778;51.142;3.732;2023-03-13T03:51:01;3.10;;;1.90;;
59922;SDS011;45778;51.142;3.732;2023-03-13T03:53:27;8.80;;;3.33;;
59922;SDS011;45778;51.142;3.732;2023-03-13T03:55:53;5.45;;;2.65;;
59922;SDS011;45778;51.142;3.732;2023-03-13T03:58:19;2.80;;;1.90;;
59922;SDS011;45778;51.142;3.732;2023-03-13T04:00:45;4.32;;;2.15;;
59922;SDS011;45778;51.142;3.732;2023-03-13T04:03:12;4.28;;;2.08;;
59922;SDS011;45778;51.142;3.732;2023-03-13T04:05:38;3.53;;;2.08;;
59922;SDS011;45778;51.142;3.732;2023-03-13T04:08:04;3.17;;;2.25;;
59922;SDS011;45778;51.142;3.732;2023-03-13T04:10:30;6.93;;;3.00;;
59922;SDS011;45778;51.142;3.732;2023-03-13T04:12:56;6.30;;;2.80;;
59922;SDS011;45778;51.142;3.732;2023-03-13T04:15:21;5.63;;;2.38;;
59922;SDS011;45778;51.142;3.732;2023-03-13T04:17:47;3.60;;;2.15;;
59922;SDS011;45778;51.142;3.732;2023-03-13T04:20:13;5.45;;;2.35;;
59922;SDS011;45778;51.142;3.732;2023-03-13T04:22:39;4.80;;;2.17;;
59922;SDS011;45778;51.142;3.732;2023-03-13T04:25:06;6.40;;;1.77;;
59922;SDS011;45778;51.142;3.732;2023-03-13T04:27:33;8.02;;;2.20;;
59922;SDS011;45778;51.142;3.732;2023-03-13T04:29:59;5.35;;;2.60;;
59922;SDS011;45778;51.142;3.732;2023-03-13T04:32:25;7.22;;;3.08;;
59922;SDS011;45778;51.142;3.732;2023-03-13T04:34:51;5.88;;;2.50;;
59922;SDS011;45778;51.142;3.732;2023-03-13T04:37:16;8.73;;;2.83;;
59922;SDS011;45778;51.142;3.732;2023-03-13T04:39:42;3.92;;;2.15;;
59922;SDS011;45778;51.142;3.732;2023-03-13T04:42:11;4.55;;;2.40;;
59922;SDS011;45778;51.142;3.732;2023-03-13T04:44:37;7.20;;;2.22;;
59922;SDS011;45778;51.142;3.732;2023-03-13T04:47:03;4.88;;;2.40;;
59922;SDS011;45778;51.142;3.732;2023-03-13T04:49:29;5.38;;;2.22;;
59922;SDS011;45778;51.142;3.732;2023-03-13T04:51:55;12.73;;;3.50;;
59922;SDS011;45778;51.142;3.732;2023-03-13T04:54:21;5.50;;;2.30;;
59922;SDS011;45778;51.142;3.732;2023-03-13T04:56:46;6.95;;;2.20;;
59922;SDS011;45778;51.142;3.732;2023-03-13T04:59:13;13.80;;;3.42;;
59922;SDS011;45778;51.142;3.732;2023-03-13T05:01:40;6.25;;;2.17;;
59922;SDS011;45778;51.142;3.732;2023-03-13T05:04:06;7.97;;;2.30;;
59922;SDS011;45778;51.142;3.732;2023-03-13T05:06:32;3.95;;;1.80;;
59922;SDS011;45778;51.142;3.732;2023-03-13T05:08:58;4.00;;;2.00;;
59922;SDS011;45778;51.142;3.732;2023-03-13T05:11:24;9.02;;;1.23;;
59922;SDS011;45778;51.142;3.732;2023-03-13T05:13:50;7.88;;;2.25;;
59922;SDS011;45778;51.142;3.732;2023-03-13T05:16:16;8.40;;;2.60;;
59922;SDS011;45778;51.142;3.732;2023-03-13T05:18:41;8.23;;;2.22;;
59922;SDS011;45778;51.142;3.732;2023-03-13T05:21:07;10.45;;;2.20;;
59922;SDS011;45778;51.142;3.732;2023-03-13T05:23:33;5.18;;;2.10;;
59922;SDS011;45778;51.142;3.732;2023-03-13T05:25:59;7.35;;;2.30;;
59922;SDS011;45778;51.142;3.732;2023-03-13T05:28:25;8.45;;;2.50;;
59922;SDS011;45778;51.142;3.732;2023-03-13T05:30:50;4.55;;;1.92;;
59922;SDS011;45778;51.142;3.732;2023-03-13T05:33:16;4.72;;;2.47;;
59922;SDS011;45778;51.142;3.732;2023-03-13T05:35:43;7.22;;;2.40;;
59922;SDS011;45778;51.142;3.732;2023-03-13T05:38:09;9.98;;;2.53;;
59922;SDS011;45778;51.142;3.732;2023-03-13T05:40:35;8.45;;;2.83;;
59922;SDS011;45778;51.142;3.732;2023-03-13T05:43:01;7.32;;;2.65;;
59922;SDS011;45778;51.142;3.732;2023-03-13T05:45:27;8.75;;;1.90;;
59922;SDS011;45778;51.142;3.732;2023-03-13T05:47:52;6.75;;;2.15;;
59922;SDS011;45778;51.142;3.732;2023-03-13T05:50:18;8.00;;;2.70;;
59922;SDS011;45778;51.142;3.732;2023-03-13T05:52:44;12.60;;;2.42;;
59922;SDS011;45778;51.142;3.732;2023-03-13T05:55:09;8.30;;;2.20;;
59922;SDS011;45778;51.142;3.732;2023-03-13T05:57:35;6.95;;;2.70;;
59922;SDS011;45778;51.142;3.732;2023-03-13T06:00:01;8.00;;;2.30;;
59922;SDS011;45778;51.142;3.732;2023-03-13T06:02:28;7.15;;;2.35;;
59922;SDS011;45778;51.142;3.732;2023-03-13T06:04:53;7.38;;;2.60;;
59922;SDS011;45778;51.142;3.732;2023-03-13T06:07:20;9.43;;;2.13;;
59922;SDS011;45778;51.142;3.732;2023-03-13T06:09:45;8.73;;;2.28;;
59922;SDS011;45778;51.142;3.732;2023-03-13T06:12:11;9.40;;;2.53;;
59922;SDS011;45778;51.142;3.732;2023-03-13T06:14:37;5.90;;;2.00;;
59922;SDS011;45778;51.142;3.732;2023-03-13T06:17:03;10.77;;;3.13;;
59922;SDS011;45778;51.142;3.732;2023-03-13T06:19:29;8.95;;;2.67;;
59922;SDS011;45778;51.142;3.732;2023-03-13T06:21:55;10.90;;;2.65;;
59922;SDS011;45778;51.142;3.732;2023-03-13T06:24:21;8.00;;;2.38;;
59922;SDS011;45778;51.142;3.732;2023-03-13T06:26:47;7.60;;;2.20;;
59922;SDS011;45778;51.142;3.732;2023-03-13T06:29:14;10.32;;;3.13;;
59922;SDS011;45778;51.142;3.732;2023-03-13T06:31:40;16.02;;;2.70;;
59922;SDS011;45778;51.142;3.732;2023-03-13T06:34:07;10.20;;;2.72;;
59922;SDS011;45778;51.142;3.732;2023-03-13T06:36:36;9.18;;;2.95;;
59922;SDS011;45778;51.142;3.732;2023-03-13T06:39:02;25.83;;;3.20;;
59922;SDS011;45778;51.142;3.732;2023-03-13T06:41:28;15.43;;;3.17;;
59922;SDS011;45778;51.142;3.732;2023-03-13T06:43:54;9.55;;;2.95;;
59922;SDS011;45778;51.142;3.732;2023-03-13T06:46:21;15.77;;;3.70;;
59922;SDS011;45778;51.142;3.732;2023-03-13T06:48:48;9.48;;;3.03;;
59922;SDS011;45778;51.142;3.732;2023-03-13T06:51:14;9.15;;;2.33;;
59922;SDS011;45778;51.142;3.732;2023-03-13T06:53:41;11.00;;;3.45;;
59922;SDS011;45778;51.142;3.732;2023-03-13T06:56:08;7.43;;;2.30;;
59922;SDS011;45778;51.142;3.732;2023-03-13T06:58:34;8.75;;;2.72;;
59922;SDS011;45778;51.142;3.732;2023-03-13T07:01:07;12.45;;;4.03;;
59922;SDS011;45778;51.142;3.732;2023-03-13T07:03:37;7.38;;;2.72;;
59922;SDS011;45778;51.142;3.732;2023-03-13T07:06:05;11.38;;;3.15;;
59922;SDS011;45778;51.142;3.732;2023-03-13T07:08:31;6.93;;;2.25;;
59922;SDS011;45778;51.142;3.732;2023-03-13T07:10:58;5.75;;;2.15;;
59922;SDS011;45778;51.142;3.732;2023-03-13T07:13:26;8.50;;;2.50;;
59922;SDS011;45778;51.142;3.732;2023-03-13T07:15:52;6.35;;;2.70;;
59922;SDS011;45778;51.142;3.732;2023-03-13T07:18:18;10.43;;;3.50;;
59922;SDS011;45778;51.142;3.732;2023-03-13T07:20:44;11.55;;;3.13;;
59922;SDS011;45778;51.142;3.732;2023-03-13T07:23:15;13.23;;;3.08;;
59922;SDS011;45778;51.142;3.732;2023-03-13T07:25:41;9.90;;;3.00;;
59922;SDS011;45778;51.142;3.732;2023-03-13T07:28:06;11.82;;;4.20;;
59922;SDS011;45778;51.142;3.732;2023-03-13T07:30:32;15.75;;;3.30;;
59922;SDS011;45778;51.142;3.732;2023-03-13T07:32:58;5.70;;;2.55;;
59922;SDS011;45778;51.142;3.732;2023-03-13T07:35:23;9.20;;;3.50;;
59922;SDS011;45778;51.142;3.732;2023-03-13T07:37:49;6.28;;;3.22;;
59922;SDS011;45778;51.142;3.732;2023-03-13T07:40:16;8.07;;;2.78;;
59922;SDS011;45778;51.142;3.732;2023-03-13T07:42:41;7.03;;;3.28;;
59922;SDS011;45778;51.142;3.732;2023-03-13T07:45:08;5.47;;;2.15;;
59922;SDS011;45778;51.142;3.732;2023-03-13T07:47:34;5.00;;;1.58;;
59922;SDS011;45778;51.142;3.732;2023-03-13T07:50:00;5.35;;;1.75;;
59922;SDS011;45778;51.142;3.732;2023-03-13T07:52:26;6.20;;;2.10;;
59922;SDS011;45778;51.142;3.732;2023-03-13T07:54:52;6.40;;;2.13;;
59922;SDS011;45778;51.142;3.732;2023-03-13T07:57:18;4.80;;;1.60;;
59922;SDS011;45778;51.142;3.732;2023-03-13T07:59:44;9.02;;;2.75;;
59922;SDS011;45778;51.142;3.732;2023-03-13T08:02:10;2.85;;;1.00;;
59922;SDS011;45778;51.142;3.732;2023-03-13T08:04:38;5.15;;;1.65;;
59922;SDS011;45778;51.142;3.732;2023-03-13T08:07:07;4.22;;;1.08;;
59922;SDS011;45778;51.142;3.732;2023-03-13T08:09:33;4.25;;;1.55;;
59922;SDS011;45778;51.142;3.732;2023-03-13T08:11:59;2.83;;;1.08;;
59922;SDS011;45778;51.142;3.732;2023-03-13T08:14:25;3.10;;;1.52;;
59922;SDS011;45778;51.142;3.732;2023-03-13T08:16:50;3.67;;;1.50;;
59922;SDS011;45778;51.142;3.732;2023-03-13T08:19:16;5.22;;;1.17;;
59922;SDS011;45778;51.142;3.732;2023-03-13T08:21:42;5.70;;;1.30;;
59922;SDS011;45778;51.142;3.732;2023-03-13T08:24:09;4.22;;;0.82;;
59922;SDS011;45778;51.142;3.732;2023-03-13T08:26:36;3.50;;;0.88;;
59922;SDS011;45778;51.142;3.732;2023-03-13T08:29:05;24.10;;;1.70;;
59922;SDS011;45778;51.142;3.732;2023-03-13T08:31:42;4.50;;;1.17;;
59922;SDS011;45778;51.142;3.732;2023-03-13T08:34:12;2.03;;;0.98;;
59922;SDS011;45778;51.142;3.732;2023-03-13T08:36:39;4.70;;;1.70;;
59922;SDS011;45778;51.142;3.732;2023-03-13T08:39:06;3.58;;;1.27;;
59922;SDS011;45778;51.142;3.732;2023-03-13T08:41:38;2.88;;;1.40;;
59922;SDS011;45778;51.142;3.732;2023-03-13T08:44:05;10.93;;;2.28;;
59922;SDS011;45778;51.142;3.732;2023-03-13T08:46:32;3.92;;;1.92;;
59922;SDS011;45778;51.142;3.732;2023-03-13T08:48:59;6.40;;;1.85;;
59922;SDS011;45778;51.142;3.732;2023-03-13T08:51:26;7.05;;;1.73;;
59922;SDS011;45778;51.142;3.732;2023-03-13T08:53:53;10.27;;;2.72;;
59922;SDS011;45778;51.142;3.732;2023-03-13T08:56:20;5.60;;;1.63;;
59922;SDS011;45778;51.142;3.732;2023-03-13T08:58:50;4.25;;;1.20;;
59922;SDS011;45778;51.142;3.732;2023-03-13T09:01:17;9.05;;;1.58;;
59922;SDS011;45778;51.142;3.732;2023-03-13T09:03:44;3.97;;;1.20;;
59922;SDS011;45778;51.142;3.732;2023-03-13T09:06:10;1.42;;;1.10;;
59922;SDS011;45778;51.142;3.732;2023-03-13T09:08:37;5.60;;;1.20;;
59922;SDS011;45778;51.142;3.732;2023-03-13T09:11:04;5.40;;;1.33;;
59922;SDS011;45778;51.142;3.732;2023-03-13T09:13:32;4.55;;;1.10;;
59922;SDS011;45778;51.142;3.732;2023-03-13T09:16:04;4.43;;;1.58;;
59922;SDS011;45778;51.142;3.732;2023-03-13T09:18:31;6.57;;;1.15;;
59922;SDS011;45778;51.142;3.732;2023-03-13T09:20:57;2.55;;;1.08;;
59922;SDS011;45778;51.142;3.732;2023-03-13T09:23:23;4.05;;;1.05;;
59922;SDS011;45778;51.142;3.732;2023-03-13T09:25:53;5.03;;;1.35;;
59922;SDS011;45778;51.142;3.732;2023-03-13T09:28:20;4.68;;;1.38;;
59922;SDS011;45778;51.142;3.732;2023-03-13T09:30:47;4.13;;;1.33;;
59922;SDS011;45778;51.142;3.732;2023-03-13T09:33:16;2.80;;;1.50;;
59922;SDS011;45778;51.142;3.732;2023-03-13T09:35:42;3.85;;;0.95;;
59922;SDS011;45778;51.142;3.732;2023-03-13T09:38:11;3.80;;;1.10;;
59922;SDS011;45778;51.142;3.732;2023-03-13T09:40:37;2.30;;;1.05;;
59922;SDS011;45778;51.142;3.732;2023-03-13T09:43:15;2.35;;;1.50;;
59922;SDS011;45778;51.142;3.732;2023-03-13T09:45:47;3.78;;;1.40;;
59922;SDS011;45778;51.142;3.732;2023-03-13T09:50:53;3.45;;;1.05;;
59922;SDS011;45778;51.142;3.732;2023-03-13T09:57:05;4.57;;;0.93;;
59922;SDS011;45778;51.142;3.732;2023-03-13T10:01:46;6.05;;;1.75;;
59922;SDS011;45778;51.142;3.732;2023-03-13T10:04:31;3.97;;;0.90;;
59922;SDS011;45778;51.142;3.732;2023-03-13T10:07:03;4.13;;;0.88;;
59922;SDS011;45778;51.142;3.732;2023-03-13T10:09:30;3.35;;;0.90;;
59922;SDS011;45778;51.142;3.732;2023-03-13T10:17:48;3.83;;;0.85;;
59922;SDS011;45778;51.142;3.732;2023-03-13T10:23:25;1.95;;;0.75;;
59922;SDS011;45778;51.142;3.732;2023-03-13T10:25:51;1.25;;;0.60;;
59922;SDS011;45778;51.142;3.732;2023-03-13T10:28:17;3.90;;;1.10;;
59922;SDS011;45778;51.142;3.732;2023-03-13T10:30:52;2.58;;;0.65;;
59922;SDS011;45778;51.142;3.732;2023-03-13T10:33:27;3.05;;;0.75;;
59922;SDS011;45778;51.142;3.732;2023-03-13T10:36:01;1.77;;;0.73;;
59922;SDS011;45778;51.142;3.732;2023-03-13T10:38:31;6.43;;;0.98;;
59922;SDS011;45778;51.142;3.732;2023-03-13T10:41:00;5.20;;;0.88;;
59922;SDS011;45778;51.142;3.732;2023-03-13T10:43:29;2.95;;;0.68;;
59922;SDS011;45778;51.142;3.732;2023-03-13T10:45:55;3.60;;;0.95;;
59922;SDS011;45778;51.142;3.732;2023-03-13T10:50:52;4.10;;;0.90;;
59922;SDS011;45778;51.142;3.732;2023-03-13T10:58:43;10.40;;;1.30;;
59922;SDS011;45778;51.142;3.732;2023-03-13T11:03:46;7.88;;;1.65;;
59922;SDS011;45778;51.142;3.732;2023-03-13T11:11:50;4.78;;;0.90;;
59922;SDS011;45778;51.142;3.732;2023-03-13T11:14:25;2.80;;;0.88;;
59922;SDS011;45778;51.142;3.732;2023-03-13T11:38:12;3.85;;;0.85;;
59922;SDS011;45778;51.142;3.732;2023-03-13T11:43:27;8.02;;;1.17;;
59922;SDS011;45778;51.142;3.732;2023-03-13T11:49:12;4.53;;;1.08;;
59922;SDS011;45778;51.142;3.732;2023-03-13T12:02:20;7.13;;;1.60;;
59922;SDS011;45778;51.142;3.732;2023-03-13T12:04:57;11.93;;;1.42;;
59922;SDS011;45778;51.142;3.732;2023-03-13T12:07:29;5.47;;;1.27;;
59922;SDS011;45778;51.142;3.732;2023-03-13T12:10:02;10.25;;;1.80;;
59922;SDS011;45778;51.142;3.732;2023-03-13T12:15:47;9.65;;;1.98;;
59922;SDS011;45778;51.142;3.732;2023-03-13T12:20:57;4.72;;;1.17;;
59922;SDS011;45778;51.142;3.732;2023-03-13T12:26:32;7.93;;;1.95;;
59922;SDS011;45778;51.142;3.732;2023-03-13T12:31:52;6.78;;;1.45;;
59922;SDS011;45778;51.142;3.732;2023-03-13T12:36:56;12.93;;;1.70;;
59922;SDS011;45778;51.142;3.732;2023-03-13T12:45:00;9.32;;;1.80;;
59922;SDS011;45778;51.142;3.732;2023-03-13T12:47:30;10.52;;;2.25;;
59922;SDS011;45778;51.142;3.732;2023-03-13T12:55:26;8.65;;;1.70;;
59922;SDS011;45778;51.142;3.732;2023-03-13T13:00:33;12.77;;;2.78;;
59922;SDS011;45778;51.142;3.732;2023-03-13T13:03:01;9.70;;;1.92;;
59922;SDS011;45778;51.142;3.732;2023-03-13T13:05:59;8.88;;;2.65;;
59922;SDS011;45778;51.142;3.732;2023-03-13T13:08:35;4.93;;;1.50;;
59922;SDS011;45778;51.142;3.732;2023-03-13T13:13:57;14.40;;;2.25;;
59922;SDS011;45778;51.142;3.732;2023-03-13T13:16:24;10.00;;;2.25;;
59922;SDS011;45778;51.142;3.732;2023-03-13T13:18:51;11.13;;;3.10;;
59922;SDS011;45778;51.142;3.732;2023-03-13T13:21:18;5.90;;;1.45;;
59922;SDS011;45778;51.142;3.732;2023-03-13T13:23:46;8.90;;;2.10;;
59922;SDS011;45778;51.142;3.732;2023-03-13T13:28:54;9.35;;;2.35;;
59922;SDS011;45778;51.142;3.732;2023-03-13T13:32:06;8.85;;;1.63;;
59922;SDS011;45778;51.142;3.732;2023-03-13T13:36:52;8.23;;;1.67;;
59922;SDS011;45778;51.142;3.732;2023-03-13T13:42:35;10.32;;;2.17;;
59922;SDS011;45778;51.142;3.732;2023-03-13T13:47:41;9.63;;;1.52;;
59922;SDS011;45778;51.142;3.732;2023-03-13T13:52:43;14.27;;;3.70;;
59922;SDS011;45778;51.142;3.732;2023-03-13T13:57:51;11.85;;;2.45;;
59922;SDS011;45778;51.142;3.732;2023-03-13T14:00:43;13.73;;;2.70;;
59922;SDS011;45778;51.142;3.732;2023-03-13T14:03:28;12.13;;;2.50;;
59922;SDS011;45778;51.142;3.732;2023-03-13T14:06:18;12.88;;;2.33;;
59922;SDS011;45778;51.142;3.732;2023-03-13T14:08:44;13.13;;;2.92;;
59922;SDS011;45778;51.142;3.732;2023-03-13T14:14:09;11.20;;;2.35;;
59922;SDS011;45778;51.142;3.732;2023-03-13T14:16:49;6.78;;;2.17;;
59922;SDS011;45778;51.142;3.732;2023-03-13T14:19:21;12.70;;;3.20;;
59922;SDS011;45778;51.142;3.732;2023-03-13T14:22:10;9.15;;;2.50;;
59922;SDS011;45778;51.142;3.732;2023-03-13T14:24:38;11.45;;;3.08;;
59922;SDS011;45778;51.142;3.732;2023-03-13T14:27:14;10.45;;;2.90;;
59922;SDS011;45778;51.142;3.732;2023-03-13T14:29:41;19.92;;;3.40;;
59922;SDS011;45778;51.142;3.732;2023-03-13T14:32:27;9.38;;;2.50;;
59922;SDS011;45778;51.142;3.732;2023-03-13T14:34:53;14.50;;;2.40;;
59922;SDS011;45778;51.142;3.732;2023-03-13T14:37:35;11.60;;;2.30;;
59922;SDS011;45778;51.142;3.732;2023-03-13T14:40:06;13.98;;;3.58;;
59922;SDS011;45778;51.142;3.732;2023-03-13T14:42:38;14.00;;;2.67;;
59922;SDS011;45778;51.142;3.732;2023-03-13T14:45:14;9.48;;;2.53;;
59922;SDS011;45778;51.142;3.732;2023-03-13T14:47:45;22.92;;;3.38;;
59922;SDS011;45778;51.142;3.732;2023-03-13T14:50:11;15.18;;;3.22;;
59922;SDS011;45778;51.142;3.732;2023-03-13T14:52:45;9.07;;;1.98;;
59922;SDS011;45778;51.142;3.732;2023-03-13T15:00:54;15.07;;;2.97;;
59922;SDS011;45778;51.142;3.732;2023-03-13T15:03:26;11.85;;;2.33;;
59922;SDS011;45778;51.142;3.732;2023-03-13T15:06:12;15.52;;;2.50;;
59922;SDS011;45778;51.142;3.732;2023-03-13T15:08:43;13.35;;;3.75;;
59922;SDS011;45778;51.142;3.732;2023-03-13T15:11:27;14.55;;;3.00;;
59922;SDS011;45778;51.142;3.732;2023-03-13T15:13:56;11.63;;;2.80;;
59922;SDS011;45778;51.142;3.732;2023-03-13T15:16:22;13.25;;;3.10;;
59922;SDS011;45778;51.142;3.732;2023-03-13T15:18:49;14.93;;;2.42;;
59922;SDS011;45778;51.142;3.732;2023-03-13T15:21:19;9.98;;;2.30;;
59922;SDS011;45778;51.142;3.732;2023-03-13T15:23:54;14.00;;;2.47;;
59922;SDS011;45778;51.142;3.732;2023-03-13T15:26:34;13.73;;;3.03;;
59922;SDS011;45778;51.142;3.732;2023-03-13T15:28:59;13.07;;;2.88;;
59922;SDS011;45778;51.142;3.732;2023-03-13T15:31:26;10.52;;;2.47;;
59922;SDS011;45778;51.142;3.732;2023-03-13T15:33:57;13.55;;;3.53;;
59922;SDS011;45778;51.142;3.732;2023-03-13T15:36:25;15.35;;;3.45;;
59922;SDS011;45778;51.142;3.732;2023-03-13T15:38:51;13.73;;;2.70;;
59922;SDS011;45778;51.142;3.732;2023-03-13T15:41:18;10.82;;;2.50;;
59922;SDS011;45778;51.142;3.732;2023-03-13T15:43:45;13.00;;;3.05;;
59922;SDS011;45778;51.142;3.732;2023-03-13T15:46:13;9.98;;;2.70;;
59922;SDS011;45778;51.142;3.732;2023-03-13T15:48:39;11.77;;;2.33;;
59922;SDS011;45778;51.142;3.732;2023-03-13T15:51:08;12.35;;;2.90;;
59922;SDS011;45778;51.142;3.732;2023-03-13T15:53:36;15.18;;;3.42;;
59922;SDS011;45778;51.142;3.732;2023-03-13T15:56:04;11.57;;;2.75;;
59922;SDS011;45778;51.142;3.732;2023-03-13T15:58:40;15.85;;;2.50;;
59922;SDS011;45778;51.142;3.732;2023-03-13T16:01:08;16.17;;;2.88;;
59922;SDS011;45778;51.142;3.732;2023-03-13T16:03:35;11.40;;;2.58;;
59922;SDS011;45778;51.142;3.732;2023-03-13T16:06:00;10.55;;;2.40;;
59922;SDS011;45778;51.142;3.732;2023-03-13T16:08:27;12.73;;;2.80;;
59922;SDS011;45778;51.142;3.732;2023-03-13T16:10:53;11.10;;;2.92;;
59922;SDS011;45778;51.142;3.732;2023-03-13T16:13:19;10.63;;;2.63;;
59922;SDS011;45778;51.142;3.732;2023-03-13T16:15:45;12.15;;;2.55;;
59922;SDS011;45778;51.142;3.732;2023-03-13T16:18:19;8.88;;;2.60;;
59922;SDS011;45778;51.142;3.732;2023-03-13T16:20:47;14.80;;;3.28;;
59922;SDS011;45778;51.142;3.732;2023-03-13T16:23:13;13.05;;;3.30;;
59922;SDS011;45778;51.142;3.732;2023-03-13T16:25:39;9.52;;;2.60;;
59922;SDS011;45778;51.142;3.732;2023-03-13T16:28:05;15.05;;;2.83;;
59922;SDS011;45778;51.142;3.732;2023-03-13T16:30:32;9.15;;;2.33;;
59922;SDS011;45778;51.142;3.732;2023-03-13T16:32:58;11.25;;;2.67;;
59922;SDS011;45778;51.142;3.732;2023-03-13T16:35:26;13.80;;;3.20;;
59922;SDS011;45778;51.142;3.732;2023-03-13T16:37:52;13.75;;;3.58;;
59922;SDS011;45778;51.142;3.732;2023-03-13T16:40:20;17.88;;;2.85;;
59922;SDS011;45778;51.142;3.732;2023-03-13T16:42:48;18.65;;;2.78;;
59922;SDS011;45778;51.142;3.732;2023-03-13T16:45:14;15.13;;;3.30;;
59922;SDS011;45778;51.142;3.732;2023-03-13T16:47:40;13.95;;;2.90;;
59922;SDS011;45778;51.142;3.732;2023-03-13T16:50:13;16.08;;;2.75;;
59922;SDS011;45778;51.142;3.732;2023-03-13T16:52:44;15.10;;;2.92;;
59922;SDS011;45778;51.142;3.732;2023-03-13T16:55:10;11.73;;;2.58;;
59922;SDS011;45778;51.142;3.732;2023-03-13T16:57:36;13.57;;;2.75;;
59922;SDS011;45778;51.142;3.732;2023-03-13T17:00:02;13.27;;;3.00;;
59922;SDS011;45778;51.142;3.732;2023-03-13T17:02:35;16.20;;;3.78;;
59922;SDS011;45778;51.142;3.732;2023-03-13T17:05:01;19.25;;;4.00;;
59922;SDS011;45778;51.142;3.732;2023-03-13T17:07:27;15.60;;;3.85;;